Time,TemperatureF,DewpointF,PressureIn,WindDirection,WindDirectionDegrees,WindSpeedMPH,WindSpeedGustMPH,Humidity,HourlyPrecipIn,Conditions,Clouds,dailyrainin,SoftwareType,DateUTC
2013-04-17 00:00:00,32.4,26.6,29.60,WSW,248,0.0,3.0,79,0.00,,,0.00,meteohub,2013-04-17 04:00:00,
2013-04-17 00:05:00,32.0,26.2,29.60,NNW,338,0.0,2.0,79,0.00,,,0.00,meteohub,2013-04-17 04:05:00,
2013-04-17 00:10:00,31.8,26.1,29.60,WNW,293,0.0,0.0,79,0.00,,,0.00,meteohub,2013-04-17 04:10:00,
2013-04-17 00:15:00,31.6,25.9,29.60,WNW,293,0.0,0.0,79,0.00,,,0.22,meteohub,2013-04-17 04:15:00,
2013-04-17 00:20:00,31.3,25.5,29.60,North,0,2.0,0.0,79,0.00,,,0.00,meteohub,2013-04-17 04:20:00,
2013-04-17 00:25:00,31.3,25.5,29.60,NW,315,0.0,2.0,79,0.00,,,0.00,meteohub,2013-04-17 04:25:00,
2013-04-17 00:30:00,31.1,25.3,29.60,SW,225,2.0,2.0,79,0.00,,,0.00,meteohub,2013-04-17 04:30:00,
2013-04-17 00:35:00,30.9,25.5,29.60,WNW,293,0.0,2.0,80,0.00,,,0.00,meteohub,2013-04-17 04:35:00,
2013-04-17 00:40:00,30.7,25.3,29.60,West,270,0.0,2.0,80,0.00,,,0.00,meteohub,2013-04-17 04:40:00,
2013-04-17 00:45:00,30.7,25.3,29.60,NW,315,0.0,2.0,80,0.00,,,0.00,meteohub,2013-04-17 04:45:00,
2013-04-17 00:50:00,30.6,25.2,29.60,WNW,293,1.0,2.0,80,0.00,,,0.00,meteohub,2013-04-17 04:50:00,
2013-04-17 00:55:00,30.6,25.2,29.59,SSE,158,0.0,2.0,80,0.00,,,0.00,meteohub,2013-04-17 04:55:00,
2013-04-17 01:00:00,30.4,25.0,29.59,South,180,0.0,1.0,80,0.00,,,0.00,meteohub,2013-04-17 05:00:00,
2013-04-17 01:05:00,30.4,25.0,29.59,SSW,203,0.0,1.0,80,0.00,,,0.00,meteohub,2013-04-17 05:05:00,
2013-04-17 01:10:00,30.6,25.2,29.59,NW,315,0.0,1.0,80,0.00,,,0.00,meteohub,2013-04-17 05:10:00,
2013-04-17 01:15:00,30.6,25.2,29.61,WNW,293,0.0,0.0,80,0.00,,,0.00,meteohub,2013-04-17 05:15:00,
2013-04-17 01:20:00,30.4,25.0,29.61,WNW,293,0.0,0.0,80,0.00,,,0.00,meteohub,2013-04-17 05:20:00,
2013-04-17 01:26:00,30.2,24.8,29.61,NNE,23,2.0,0.0,80,0.00,,,0.00,meteohub,2013-04-17 05:26:00,
2013-04-17 01:31:00,30.0,24.6,29.61,North,0,0.0,2.0,80,0.00,,,0.00,meteohub,2013-04-17 05:31:00,
2013-04-17 01:36:00,30.0,24.6,29.61,ENE,68,0.0,2.0,80,0.00,,,0.00,meteohub,2013-04-17 05:36:00,
2013-04-17 01:41:00,30.0,24.6,29.61,East,90,0.0,2.0,80,0.00,,,0.00,meteohub,2013-04-17 05:41:00,
2013-04-17 01:46:00,29.8,24.4,29.61,NE,45,0.0,2.0,80,0.00,,,0.00,meteohub,2013-04-17 05:46:00,
2013-04-17 01:51:00,29.8,24.8,29.61,NNE,23,0.0,1.0,81,0.00,,,0.00,meteohub,2013-04-17 05:51:00,
2013-04-17 01:56:00,29.8,24.8,29.62,SSE,158,0.0,1.0,81,0.00,,,0.00,meteohub,2013-04-17 05:56:00,
2013-04-17 02:01:00,29.5,24.4,29.62,SE,135,0.0,0.0,81,0.00,,,0.00,meteohub,2013-04-17 06:01:00,
2013-04-17 02:06:00,29.3,24.3,29.62,NNE,23,0.0,2.0,81,0.00,,,0.00,meteohub,2013-04-17 06:06:00,
2013-04-17 02:11:00,29.1,23.7,29.62,North,0,0.0,2.0,80,0.00,,,0.00,meteohub,2013-04-17 06:11:00,
2013-04-17 02:16:00,29.1,23.7,29.63,NE,45,0.0,2.0,80,0.00,,,0.00,meteohub,2013-04-17 06:16:00,
2013-04-17 02:21:00,29.1,23.7,29.63,North,0,0.0,1.0,80,0.00,,,0.00,meteohub,2013-04-17 06:21:00,
2013-04-17 02:26:00,29.1,23.7,29.63,North,0,0.0,1.0,80,0.00,,,0.00,meteohub,2013-04-17 06:26:00,
2013-04-17 02:31:00,29.1,23.7,29.63,North,0,0.0,1.0,80,0.00,,,0.00,meteohub,2013-04-17 06:31:00,
2013-04-17 02:36:00,29.1,23.7,29.63,NNE,23,2.0,0.0,80,0.00,,,0.00,meteohub,2013-04-17 06:36:00,
2013-04-17 02:41:00,28.9,23.5,29.63,North,0,0.0,2.0,80,0.00,,,0.00,meteohub,2013-04-17 06:41:00,
2013-04-17 02:46:00,28.9,23.5,29.63,ESE,113,0.0,2.0,80,0.00,,,0.00,meteohub,2013-04-17 06:46:00,
2013-04-17 02:51:00,28.8,23.4,29.63,East,90,0.0,2.0,80,0.00,,,0.00,meteohub,2013-04-17 06:51:00,
2013-04-17 02:56:00,28.8,23.7,29.63,West,270,0.0,0.0,81,0.00,,,0.00,meteohub,2013-04-17 06:56:00,
2013-04-17 03:01:00,28.6,23.5,29.63,North,0,0.0,0.0,81,0.00,,,0.00,meteohub,2013-04-17 07:01:00,
2013-04-17 03:06:00,28.4,23.4,29.63,North,0,0.0,0.0,81,0.00,,,0.00,meteohub,2013-04-17 07:06:00,
2013-04-17 03:11:00,28.4,23.4,29.63,North,0,0.0,2.0,81,0.00,,,0.00,meteohub,2013-04-17 07:11:00,
2013-04-17 03:16:00,28.4,23.4,29.64,North,0,0.0,2.0,81,0.00,,,0.00,meteohub,2013-04-17 07:16:00,
2013-04-17 03:22:00,28.2,23.2,29.64,WNW,293,0.0,0.0,81,0.00,,,0.00,meteohub,2013-04-17 07:22:00,
2013-04-17 03:27:00,28.2,23.2,29.64,West,270,0.0,0.0,81,0.00,,,0.00,meteohub,2013-04-17 07:27:00,
2013-04-17 03:32:00,28.0,23.0,29.64,East,90,0.0,0.0,81,0.00,,,0.00,meteohub,2013-04-17 07:32:00,
2013-04-17 03:37:00,27.7,22.6,29.64,NNE,23,0.0,0.0,81,0.00,,,0.00,meteohub,2013-04-17 07:37:00,
2013-04-17 03:42:00,27.7,22.6,29.64,NNE,23,0.0,0.0,81,0.00,,,0.00,meteohub,2013-04-17 07:42:00,
2013-04-17 03:47:00,27.7,22.6,29.64,SSW,203,0.0,0.0,81,0.00,,,0.00,meteohub,2013-04-17 07:47:00,
2013-04-17 03:52:00,27.5,22.5,29.64,NE,45,0.0,2.0,81,0.00,,,0.00,meteohub,2013-04-17 07:52:00,
2013-04-17 03:57:00,27.3,22.3,29.63,North,0,2.0,2.0,81,0.00,,,0.00,meteohub,2013-04-17 07:57:00,
2013-04-17 04:02:00,27.3,22.3,29.63,NNW,338,0.0,2.0,81,0.00,,,0.00,meteohub,2013-04-17 08:02:00,
2013-04-17 04:07:00,27.7,22.6,29.63,NW,315,2.0,2.0,81,0.00,,,0.00,meteohub,2013-04-17 08:07:00,
2013-04-17 04:12:00,27.7,22.6,29.63,NW,315,0.0,2.0,81,0.00,,,0.00,meteohub,2013-04-17 08:12:00,
2013-04-17 04:17:00,27.9,22.8,29.64,WNW,293,0.0,2.0,81,0.00,,,0.00,meteohub,2013-04-17 08:17:00,
2013-04-17 04:22:00,27.7,22.6,29.64,ENE,68,0.0,2.0,81,0.00,,,0.00,meteohub,2013-04-17 08:22:00,
2013-04-17 04:27:00,27.3,22.3,29.64,SW,225,0.0,0.0,81,0.00,,,0.00,meteohub,2013-04-17 08:27:00,
2013-04-17 04:32:00,27.0,21.9,29.64,SSW,203,0.0,0.0,81,0.00,,,0.00,meteohub,2013-04-17 08:32:00,
2013-04-17 04:37:00,26.8,21.7,29.63,NNE,23,0.0,0.0,81,0.00,,,0.00,meteohub,2013-04-17 08:37:00,
2013-04-17 04:42:00,26.6,21.6,29.63,SSE,158,0.0,0.0,81,0.00,,,0.00,meteohub,2013-04-17 08:42:00,
2013-04-17 04:47:00,26.4,21.4,29.63,SSE,158,0.0,0.0,81,0.00,,,0.00,meteohub,2013-04-17 08:47:00,
2013-04-17 04:52:00,26.2,21.2,29.63,East,90,0.0,0.0,81,0.00,,,0.00,meteohub,2013-04-17 08:52:00,
2013-04-17 04:57:00,26.2,21.2,29.64,East,90,0.0,0.0,81,0.00,,,0.00,meteohub,2013-04-17 08:57:00,
2013-04-17 05:02:00,26.2,21.2,29.64,SE,135,0.0,0.0,81,0.00,,,0.00,meteohub,2013-04-17 09:02:00,
2013-04-17 05:07:00,26.2,21.2,29.64,East,90,0.0,0.0,81,0.00,,,0.00,meteohub,2013-04-17 09:07:00,
2013-04-17 05:12:00,26.2,21.2,29.64,SSW,203,0.0,0.0,81,0.00,,,0.00,meteohub,2013-04-17 09:12:00,
2013-04-17 05:17:00,26.2,21.2,29.64,SSE,158,0.0,0.0,81,0.00,,,0.00,meteohub,2013-04-17 09:17:00,
2013-04-17 05:22:00,26.2,21.2,29.64,SE,135,0.0,0.0,81,0.00,,,0.00,meteohub,2013-04-17 09:22:00,
2013-04-17 05:27:00,26.2,21.2,29.64,NNE,23,2.0,0.0,81,0.00,,,0.00,meteohub,2013-04-17 09:27:00,
2013-04-17 05:32:00,26.4,21.4,29.64,NNE,23,0.0,0.0,81,0.00,,,0.00,meteohub,2013-04-17 09:32:00,
2013-04-17 05:37:00,26.4,21.4,29.65,SSW,203,0.0,3.0,81,0.00,,,0.00,meteohub,2013-04-17 09:37:00,
2013-04-17 05:42:00,26.6,21.6,29.65,SSW,203,0.0,3.0,81,0.00,,,0.00,meteohub,2013-04-17 09:42:00,
2013-04-17 05:47:00,26.6,21.6,29.65,NNE,23,0.0,1.0,81,0.00,,,0.00,meteohub,2013-04-17 09:47:00,
2013-04-17 05:52:00,26.4,21.4,29.65,NNE,23,0.0,1.0,81,0.00,,,0.00,meteohub,2013-04-17 09:52:00,
2013-04-17 05:57:00,26.4,21.4,29.65,NNE,23,0.0,2.0,81,0.00,,,0.00,meteohub,2013-04-17 09:57:00,
2013-04-17 06:02:00,26.4,21.4,29.65,NE,45,0.0,2.0,81,0.00,,,0.00,meteohub,2013-04-17 10:02:00,
2013-04-17 06:07:00,26.4,21.4,29.65,NNE,23,1.0,2.0,81,0.00,,,0.00,meteohub,2013-04-17 10:07:00,
2013-04-17 06:12:00,26.4,21.4,29.65,NE,45,0.0,2.0,81,0.00,,,0.00,meteohub,2013-04-17 10:12:00,
2013-04-17 06:17:00,26.4,21.4,29.65,South,180,0.0,1.0,81,0.00,,,0.00,meteohub,2013-04-17 10:17:00,
2013-04-17 06:22:00,26.2,21.2,29.65,NNE,23,0.0,1.0,81,0.00,,,0.00,meteohub,2013-04-17 10:22:00,
2013-04-17 06:27:00,26.2,21.2,29.65,SSW,203,0.0,0.0,81,0.00,,,0.00,meteohub,2013-04-17 10:27:00,
2013-04-17 06:32:00,26.1,21.0,29.65,ESE,113,0.0,0.0,81,0.00,,,0.00,meteohub,2013-04-17 10:32:00,
2013-04-17 06:37:00,25.9,20.8,29.65,North,0,0.0,0.0,81,0.00,,,0.00,meteohub,2013-04-17 10:37:00,
2013-04-17 06:42:00,25.9,20.8,29.65,North,0,0.0,0.0,81,0.00,,,0.00,meteohub,2013-04-17 10:42:00,
2013-04-17 06:47:00,25.9,20.8,29.65,NNE,23,0.0,0.0,81,0.00,,,0.00,meteohub,2013-04-17 10:47:00,
2013-04-17 06:52:00,25.9,20.5,29.65,North,0,0.0,0.0,80,0.00,,,0.00,meteohub,2013-04-17 10:52:00,
2013-04-17 06:57:00,25.9,20.5,29.64,NW,315,0.0,0.0,80,0.00,,,0.00,meteohub,2013-04-17 10:57:00,
2013-04-17 07:02:00,25.7,20.7,29.64,SW,225,0.0,0.0,81,0.00,,,0.00,meteohub,2013-04-17 11:02:00,
2013-04-17 07:07:00,25.5,20.5,29.64,SSE,158,0.0,0.0,81,0.00,,,0.00,meteohub,2013-04-17 11:07:00,
2013-04-17 07:12:00,25.3,20.3,29.64,NE,45,0.0,0.0,81,0.00,,,0.00,meteohub,2013-04-17 11:12:00,
2013-04-17 07:17:00,25.2,20.1,29.65,NNE,23,0.0,1.0,81,0.00,,,0.00,meteohub,2013-04-17 11:17:00,
2013-04-17 07:22:00,25.3,20.3,29.65,NNE,23,0.0,2.0,81,0.00,,,0.00,meteohub,2013-04-17 11:22:00,
2013-04-17 07:27:00,25.3,20.1,29.65,SSW,203,0.0,2.0,80,0.00,,,0.00,meteohub,2013-04-17 11:27:00,
2013-04-17 07:32:00,25.5,20.3,29.65,ESE,113,0.0,0.0,80,0.00,,,0.00,meteohub,2013-04-17 11:32:00,
2013-04-17 07:37:00,25.7,20.5,29.66,SW,225,0.0,0.0,80,0.00,,,0.00,meteohub,2013-04-17 11:37:00,
2013-04-17 07:42:00,26.1,20.7,29.66,SSW,203,0.0,0.0,80,0.00,,,0.00,meteohub,2013-04-17 11:42:00,
2013-04-17 07:47:00,26.2,20.8,29.66,SSW,203,0.0,0.0,80,0.00,,,0.00,meteohub,2013-04-17 11:47:00,
2013-04-17 07:52:00,26.4,21.0,29.66,SSW,203,0.0,0.0,80,0.00,,,0.00,meteohub,2013-04-17 11:52:00,
2013-04-17 07:57:00,26.8,21.2,29.66,SSW,203,0.0,0.0,79,0.00,,,0.00,meteohub,2013-04-17 11:57:00,
2013-04-17 08:02:00,27.1,21.7,29.66,SSW,203,0.0,0.0,80,0.00,,,0.00,meteohub,2013-04-17 12:02:00,
2013-04-17 08:07:00,27.5,21.9,29.66,SSW,203,0.0,0.0,79,0.00,,,0.00,meteohub,2013-04-17 12:07:00,
2013-04-17 08:12:00,27.9,22.3,29.66,WSW,248,0.0,0.0,79,0.00,,,0.00,meteohub,2013-04-17 12:12:00,
2013-04-17 08:17:00,28.0,22.5,29.66,South,180,0.0,0.0,79,0.00,,,0.00,meteohub,2013-04-17 12:17:00,
2013-04-17 08:22:00,28.4,22.6,29.66,WSW,248,0.0,0.0,79,0.00,,,0.00,meteohub,2013-04-17 12:22:00,
2013-04-17 08:27:00,28.9,23.2,29.66,SSW,203,2.0,4.0,79,0.00,,,0.00,meteohub,2013-04-17 12:27:00,
2013-04-17 08:32:00,29.5,23.5,29.66,South,180,2.0,4.0,78,0.00,,,0.00,meteohub,2013-04-17 12:32:00,
2013-04-17 08:37:00,30.0,24.1,29.66,SE,135,0.0,4.0,78,0.00,,,0.00,meteohub,2013-04-17 12:37:00,
2013-04-17 08:42:00,31.1,24.8,29.66,NE,45,2.0,4.0,77,0.00,,,0.00,meteohub,2013-04-17 12:42:00,
2013-04-17 08:47:00,32.5,25.9,29.66,SE,135,2.0,4.0,76,0.00,,,0.00,meteohub,2013-04-17 12:47:00,
2013-04-17 08:52:00,33.3,26.6,29.66,NE,45,6.0,6.0,76,0.00,,,0.00,meteohub,2013-04-17 12:52:00,
2013-04-17 08:57:00,34.0,27.5,29.65,NNE,23,4.0,6.0,77,0.00,,,0.00,meteohub,2013-04-17 12:57:00,
2013-04-17 09:02:00,34.3,28.2,29.65,ENE,68,5.0,6.0,78,0.00,,,0.00,meteohub,2013-04-17 13:02:00,
2013-04-17 09:07:00,35.1,29.1,29.65,ESE,113,3.0,7.0,79,0.00,,,0.00,meteohub,2013-04-17 13:07:00,
2013-04-17 09:12:00,35.6,30.0,29.65,NE,45,4.0,7.0,80,0.00,,,0.00,meteohub,2013-04-17 13:12:00,
2013-04-17 09:16:00,36.0,30.4,29.66,East,90,4.0,6.0,80,0.00,,,0.00,meteohub,2013-04-17 13:16:00,
2013-04-17 09:22:00,36.3,30.7,29.66,ESE,113,4.0,6.0,80,0.00,,,0.00,meteohub,2013-04-17 13:22:00,
2013-04-17 09:27:00,36.9,31.6,29.66,ENE,68,9.0,9.0,81,0.00,,,0.00,meteohub,2013-04-17 13:27:00,
2013-04-17 09:32:00,37.0,31.5,29.66,NE,45,4.0,9.0,80,0.00,,,0.00,meteohub,2013-04-17 13:32:00,
2013-04-17 09:37:00,37.4,31.8,29.66,NE,45,7.0,10.0,80,0.00,,,0.00,meteohub,2013-04-17 13:37:00,
2013-04-17 09:42:00,37.6,32.0,29.66,ENE,68,9.0,11.0,80,0.00,,,0.00,meteohub,2013-04-17 13:42:00,
2013-04-17 09:47:00,38.1,32.2,29.66,NE,45,3.0,11.0,79,0.00,,,0.00,meteohub,2013-04-17 13:47:00,
2013-04-17 09:52:00,38.3,32.4,29.66,NE,45,7.0,11.0,79,0.00,,,0.00,meteohub,2013-04-17 13:52:00,
2013-04-17 09:57:00,38.7,32.4,29.66,NE,45,3.0,9.0,78,0.00,,,0.00,meteohub,2013-04-17 13:57:00,
2013-04-17 10:02:00,39.4,33.1,29.66,ENE,68,7.0,9.0,78,0.00,,,0.00,meteohub,2013-04-17 14:02:00,
2013-04-17 10:07:00,39.7,33.1,29.66,East,90,5.0,9.0,77,0.00,,,0.00,meteohub,2013-04-17 14:07:00,
2013-04-17 10:12:00,40.3,33.3,29.66,ENE,68,11.0,11.0,76,0.00,,,0.00,meteohub,2013-04-17 14:12:00,
2013-04-17 10:17:00,40.1,32.9,29.65,SE,135,6.0,11.0,75,0.00,,,0.00,meteohub,2013-04-17 14:17:00,
2013-04-17 10:22:00,40.5,33.1,29.65,NE,45,9.0,11.0,75,0.00,,,0.00,meteohub,2013-04-17 14:22:00,
2013-04-17 10:27:00,41.0,33.4,29.65,ESE,113,7.0,11.0,74,0.00,,,0.00,meteohub,2013-04-17 14:27:00,
2013-04-17 10:32:00,41.4,33.4,29.65,NE,45,7.0,11.0,73,0.00,,,0.00,meteohub,2013-04-17 14:32:00,
2013-04-17 10:37:00,41.0,32.7,29.66,SE,135,6.0,9.0,72,0.00,,,0.00,meteohub,2013-04-17 14:37:00,
2013-04-17 10:42:00,41.2,32.9,29.66,East,90,9.0,9.0,72,0.00,,,0.00,meteohub,2013-04-17 14:42:00,
2013-04-17 10:47:00,41.7,33.1,29.66,NE,45,7.0,9.0,71,0.00,,,0.00,meteohub,2013-04-17 14:47:00,
2013-04-17 10:52:00,41.9,33.3,29.66,ENE,68,7.0,9.0,71,0.00,,,0.00,meteohub,2013-04-17 14:52:00,
2013-04-17 10:57:00,42.1,33.1,29.65,East,90,12.0,12.0,70,0.00,,,0.00,meteohub,2013-04-17 14:57:00,
2013-04-17 11:02:00,41.9,32.9,29.65,SE,135,6.0,12.0,70,0.00,,,0.00,meteohub,2013-04-17 15:02:00,
2013-04-17 11:07:00,42.4,33.1,29.65,East,90,8.0,12.0,69,0.00,,,0.00,meteohub,2013-04-17 15:07:00,
2013-04-17 11:12:00,42.8,33.3,29.65,SE,135,2.0,12.0,69,0.00,,,0.00,meteohub,2013-04-17 15:12:00,
2013-04-17 11:17:00,43.0,33.1,29.65,NE,45,4.0,9.0,68,0.00,,,0.00,meteohub,2013-04-17 15:17:00,
2013-04-17 11:22:00,43.0,32.7,29.65,NNE,23,9.0,9.0,67,0.00,,,0.00,meteohub,2013-04-17 15:22:00,
2013-04-17 11:27:00,42.8,32.5,29.65,NE,45,9.0,13.0,67,0.00,,,0.00,meteohub,2013-04-17 15:27:00,
2013-04-17 11:32:00,43.0,32.7,29.65,SE,135,4.0,13.0,67,0.00,,,0.00,meteohub,2013-04-17 15:32:00,
2013-04-17 11:37:00,43.3,33.1,29.65,SSE,158,5.0,10.0,67,0.00,,,0.00,meteohub,2013-04-17 15:37:00,
2013-04-17 11:42:00,43.9,33.3,29.65,SE,135,10.0,11.0,66,0.00,,,0.00,meteohub,2013-04-17 15:42:00,
2013-04-17 11:47:00,43.9,32.9,29.65,East,90,7.0,11.0,65,0.00,,,0.00,meteohub,2013-04-17 15:47:00,
2013-04-17 11:52:00,44.2,33.3,29.65,East,90,8.0,10.0,65,0.00,,,0.00,meteohub,2013-04-17 15:52:00,
2013-04-17 11:57:00,44.4,33.1,29.65,East,90,8.0,10.0,64,0.00,,,0.00,meteohub,2013-04-17 15:57:00,
2013-04-17 12:02:00,44.4,33.1,29.65,NE,45,11.0,11.0,64,0.00,,,0.00,meteohub,2013-04-17 16:02:00,
2013-04-17 12:07:00,44.4,33.1,29.65,NE,45,11.0,11.0,64,0.00,,,0.00,meteohub,2013-04-17 16:07:00,
2013-04-17 12:12:00,44.6,32.7,29.65,NE,45,11.0,11.0,63,0.00,,,0.00,meteohub,2013-04-17 16:12:00,
2013-04-17 12:17:00,44.4,32.5,29.64,NE,45,6.0,11.0,63,0.00,,,0.00,meteohub,2013-04-17 16:17:00,
2013-04-17 12:22:00,44.8,32.9,29.64,NNE,23,7.0,11.0,63,0.00,,,0.00,meteohub,2013-04-17 16:22:00,
2013-04-17 12:27:00,45.1,33.6,29.64,NE,45,7.0,11.0,64,0.00,,,0.00,meteohub,2013-04-17 16:27:00,
2013-04-17 12:32:00,45.3,33.1,29.64,ESE,113,6.0,10.0,62,0.00,,,0.00,meteohub,2013-04-17 16:32:00,
2013-04-17 12:37:00,45.3,33.1,29.60,NE,45,11.0,12.0,62,0.00,,,0.00,meteohub,2013-04-17 16:37:00,
2013-04-17 12:42:00,45.3,32.7,29.60,East,90,7.0,13.0,61,0.00,,,0.00,meteohub,2013-04-17 16:42:00,
2013-04-17 12:47:00,45.3,32.7,29.60,ENE,68,6.0,15.0,61,0.00,,,0.00,meteohub,2013-04-17 16:47:00,
2013-04-17 12:52:00,45.3,33.1,29.60,ENE,68,6.0,15.0,62,0.00,,,0.00,meteohub,2013-04-17 16:52:00,
2013-04-17 12:57:00,45.9,33.6,29.60,NE,45,13.0,13.0,62,0.00,,,0.00,meteohub,2013-04-17 16:57:00,
2013-04-17 13:02:00,45.9,33.6,29.60,East,90,10.0,13.0,62,0.00,,,0.00,meteohub,2013-04-17 17:02:00,
2013-04-17 13:07:00,46.4,34.2,29.60,SE,135,6.0,17.0,62,0.00,,,0.00,meteohub,2013-04-17 17:07:00,
2013-04-17 13:12:00,47.5,34.3,29.60,NE,45,14.0,17.0,60,0.00,,,0.00,meteohub,2013-04-17 17:12:00,
2013-04-17 13:17:00,47.7,34.0,29.60,NE,45,15.0,15.0,59,0.00,,,0.00,meteohub,2013-04-17 17:17:00,
2013-04-17 13:22:00,47.8,34.2,29.60,SSE,158,4.0,15.0,59,0.00,,,0.00,meteohub,2013-04-17 17:22:00,
2013-04-17 13:27:00,47.5,33.4,29.60,NE,45,7.0,15.0,58,0.00,,,0.00,meteohub,2013-04-17 17:27:00,
2013-04-17 13:32:00,47.7,33.6,29.60,NE,45,9.0,15.0,58,0.00,,,0.00,meteohub,2013-04-17 17:32:00,
2013-04-17 13:37:00,48.0,33.4,29.59,NE,45,10.0,10.0,57,0.00,,,0.00,meteohub,2013-04-17 17:37:00,
2013-04-17 13:42:00,48.0,33.4,29.59,East,90,7.0,12.0,57,0.00,,,0.00,meteohub,2013-04-17 17:42:00,
2013-04-17 13:47:00,47.8,33.3,29.59,ENE,68,8.0,12.0,57,0.00,,,0.00,meteohub,2013-04-17 17:47:00,
2013-04-17 13:52:00,47.8,33.8,29.59,SE,135,6.0,14.0,58,0.00,,,0.00,meteohub,2013-04-17 17:52:00,
2013-04-17 13:57:00,48.0,33.4,29.58,ESE,113,8.0,14.0,57,0.00,,,0.00,meteohub,2013-04-17 17:57:00,
2013-04-17 14:02:00,48.2,33.6,29.58,East,90,9.0,14.0,57,0.00,,,0.00,meteohub,2013-04-17 18:02:00,
2013-04-17 14:07:00,48.4,33.4,29.58,ESE,113,8.0,14.0,56,0.00,,,0.00,meteohub,2013-04-17 18:07:00,
2013-04-17 14:12:00,48.2,33.3,29.58,East,90,12.0,12.0,56,0.00,,,0.00,meteohub,2013-04-17 18:12:00,
2013-04-17 14:17:00,48.2,33.3,29.58,East,90,6.0,12.0,56,0.00,,,0.00,meteohub,2013-04-17 18:17:00,
2013-04-17 14:22:00,48.4,33.4,29.58,ENE,68,4.0,12.0,56,0.00,,,0.00,meteohub,2013-04-17 18:22:00,
2013-04-17 14:27:00,48.4,33.4,29.58,NNE,23,9.0,12.0,56,0.00,,,0.00,meteohub,2013-04-17 18:27:00,
2013-04-17 14:32:00,48.4,32.9,29.58,ENE,68,13.0,13.0,55,0.00,,,0.00,meteohub,2013-04-17 18:32:00,
2013-04-17 14:37:00,48.2,32.7,29.55,East,90,11.0,14.0,55,0.00,,,0.00,meteohub,2013-04-17 18:37:00,
2013-04-17 14:42:00,48.0,32.5,29.55,ESE,113,15.0,15.0,55,0.00,,,0.00,meteohub,2013-04-17 18:42:00,
2013-04-17 14:47:00,48.0,33.1,29.55,ESE,113,10.0,15.0,56,0.00,,,0.00,meteohub,2013-04-17 18:47:00,
2013-04-17 14:52:00,48.2,32.7,29.55,ESE,113,4.0,15.0,55,0.00,,,0.00,meteohub,2013-04-17 18:52:00,
2013-04-17 14:57:00,48.6,33.1,29.55,SE,135,10.0,15.0,55,0.00,,,0.00,meteohub,2013-04-17 18:57:00,
2013-04-17 15:02:00,48.7,32.9,29.55,SE,135,7.0,10.0,54,0.00,,,0.00,meteohub,2013-04-17 19:02:00,
2013-04-17 15:07:00,48.7,32.9,29.55,SSE,158,8.0,10.0,54,0.00,,,0.00,meteohub,2013-04-17 19:07:00,
2013-04-17 15:12:00,48.6,32.2,29.53,ESE,113,14.0,14.0,53,0.00,,,0.00,meteohub,2013-04-17 19:12:00,
2013-04-17 15:17:00,48.4,32.5,29.53,East,90,6.0,14.0,54,0.00,,,0.00,meteohub,2013-04-17 19:17:00,
2013-04-17 15:22:00,48.4,32.5,29.53,ESE,113,6.0,14.0,54,0.00,,,0.00,meteohub,2013-04-17 19:22:00,
2013-04-17 15:27:00,48.6,32.7,29.53,ESE,113,9.0,14.0,54,0.00,,,0.00,meteohub,2013-04-17 19:27:00,
2013-04-17 15:32:00,48.6,32.2,29.53,NE,45,9.0,14.0,53,0.00,,,0.00,meteohub,2013-04-17 19:32:00,
2013-04-17 15:37:00,48.2,31.8,29.52,East,90,8.0,15.0,53,0.00,,,0.00,meteohub,2013-04-17 19:37:00,
2013-04-17 15:42:00,48.2,31.8,29.52,ENE,68,7.0,16.0,53,0.00,,,0.00,meteohub,2013-04-17 19:42:00,
2013-04-17 15:47:00,48.0,31.6,29.52,SE,135,6.0,16.0,53,0.00,,,0.00,meteohub,2013-04-17 19:47:00,
2013-04-17 15:52:00,48.0,31.6,29.52,ESE,113,5.0,11.0,53,0.00,,,0.00,meteohub,2013-04-17 19:52:00,
2013-04-17 15:57:00,47.7,31.8,29.52,East,90,6.0,11.0,54,0.00,,,0.00,meteohub,2013-04-17 19:57:00,
2013-04-17 16:02:00,47.8,32.0,29.52,East,90,9.0,11.0,54,0.00,,,0.00,meteohub,2013-04-17 20:02:00,
2013-04-17 16:08:00,47.5,31.6,29.52,ENE,68,7.0,13.0,54,0.00,,,0.00,meteohub,2013-04-17 20:08:00,
2013-04-17 16:13:00,47.5,31.3,29.52,East,90,12.0,13.0,53,0.00,,,0.00,meteohub,2013-04-17 20:13:00,
2013-04-17 16:18:00,47.3,31.5,29.52,NE,45,11.0,13.0,54,0.00,,,0.00,meteohub,2013-04-17 20:18:00,
2013-04-17 16:23:00,47.1,31.3,29.52,NE,45,6.0,12.0,54,0.00,,,0.00,meteohub,2013-04-17 20:23:00,
2013-04-17 16:28:00,47.1,31.3,29.52,ENE,68,9.0,12.0,54,0.00,,,0.00,meteohub,2013-04-17 20:28:00,
2013-04-17 16:32:00,47.1,31.8,29.52,NNE,23,6.0,12.0,55,0.00,,,0.00,meteohub,2013-04-17 20:32:00,
2013-04-17 16:38:00,47.1,31.8,29.52,ESE,113,5.0,12.0,55,0.00,,,0.00,meteohub,2013-04-17 20:38:00,
2013-04-17 16:43:00,46.9,31.1,29.52,NE,45,7.0,10.0,54,0.00,,,0.00,meteohub,2013-04-17 20:43:00,
2013-04-17 16:48:00,46.9,31.1,29.52,ESE,113,8.0,10.0,54,0.00,,,0.00,meteohub,2013-04-17 20:48:00,
2013-04-17 16:53:00,46.6,30.7,29.54,ESE,113,5.0,12.0,54,0.00,,,0.00,meteohub,2013-04-17 20:53:00,
2013-04-17 16:58:00,46.6,31.3,29.54,East,90,6.0,12.0,55,0.00,,,0.00,meteohub,2013-04-17 20:58:00,
2013-04-17 17:03:00,46.6,31.3,29.54,NE,45,7.0,12.0,55,0.00,,,0.00,meteohub,2013-04-17 21:03:00,
2013-04-17 17:08:00,46.6,31.3,29.54,NE,45,13.0,13.0,55,0.00,,,0.00,meteohub,2013-04-17 21:08:00,
2013-04-17 17:13:00,46.4,31.1,29.53,SW,225,6.0,13.0,55,0.00,,,0.00,meteohub,2013-04-17 21:13:00,
2013-04-17 17:18:00,46.4,31.1,29.53,ESE,113,7.0,13.0,55,0.00,,,0.00,meteohub,2013-04-17 21:18:00,
2013-04-17 17:23:00,46.2,30.9,29.53,East,90,5.0,13.0,55,0.00,,,0.00,meteohub,2013-04-17 21:23:00,
2013-04-17 17:28:00,46.2,30.9,29.53,East,90,8.0,9.0,55,0.00,,,0.00,meteohub,2013-04-17 21:28:00,
2013-04-17 17:33:00,46.0,31.3,29.52,SE,135,3.0,9.0,56,0.00,,,0.00,meteohub,2013-04-17 21:33:00,
2013-04-17 17:38:00,45.9,31.1,29.52,NE,45,10.0,11.0,56,0.00,,,0.00,meteohub,2013-04-17 21:38:00,
2013-04-17 17:43:00,45.7,30.9,29.52,East,90,9.0,11.0,56,0.00,,,0.00,meteohub,2013-04-17 21:43:00,
2013-04-17 17:48:00,45.5,30.2,29.52,ENE,68,10.0,11.0,55,0.00,,,0.00,meteohub,2013-04-17 21:48:00,
2013-04-17 17:53:00,45.1,30.0,29.49,ESE,113,9.0,15.0,55,0.00,,,0.00,meteohub,2013-04-17 21:53:00,
2013-04-17 17:58:00,45.0,29.8,29.49,NNE,23,11.0,15.0,55,0.00,,,0.00,meteohub,2013-04-17 21:58:00,
2013-04-17 18:03:00,44.8,29.7,29.49,East,90,16.0,16.0,55,0.00,,,0.00,meteohub,2013-04-17 22:03:00,
2013-04-17 18:08:00,44.6,29.5,29.49,ESE,113,11.0,16.0,55,0.00,,,0.00,meteohub,2013-04-17 22:08:00,
2013-04-17 18:13:00,44.4,29.3,29.48,ESE,113,7.0,16.0,55,0.00,,,0.00,meteohub,2013-04-17 22:13:00,
2013-04-17 18:18:00,44.2,29.5,29.48,East,90,6.0,18.0,56,0.00,,,0.00,meteohub,2013-04-17 22:18:00,
2013-04-17 18:23:00,44.2,29.1,29.48,ESE,113,13.0,18.0,55,0.00,,,0.00,meteohub,2013-04-17 22:23:00,
2013-04-17 18:28:00,44.1,29.3,29.48,NE,45,11.0,18.0,56,0.00,,,0.00,meteohub,2013-04-17 22:28:00,
2013-04-17 18:33:00,44.1,29.3,29.48,ESE,113,7.0,15.0,56,0.00,,,0.00,meteohub,2013-04-17 22:33:00,
2013-04-17 18:38:00,43.7,29.5,29.48,East,90,11.0,14.0,57,0.00,,,0.00,meteohub,2013-04-17 22:38:00,
2013-04-17 18:43:00,43.7,29.5,29.48,North,0,9.0,11.0,57,0.00,,,0.00,meteohub,2013-04-17 22:43:00,
2013-04-17 18:48:00,43.3,29.5,29.48,SE,135,7.0,13.0,58,0.00,,,0.00,meteohub,2013-04-17 22:48:00,
2013-04-17 18:53:00,43.2,29.3,29.47,East,90,10.0,13.0,58,0.00,,,0.00,meteohub,2013-04-17 22:53:00,
2013-04-17 18:58:00,43.0,29.7,29.47,ENE,68,6.0,13.0,59,0.00,,,0.00,meteohub,2013-04-17 22:58:00,
2013-04-17 19:03:00,42.8,29.5,29.47,East,90,9.0,13.0,59,0.00,,,0.00,meteohub,2013-04-17 23:03:00,
2013-04-17 19:08:00,42.6,29.3,29.47,ESE,113,6.0,10.0,59,0.00,,,0.00,meteohub,2013-04-17 23:08:00,
2013-04-17 19:13:00,42.4,29.1,29.46,East,90,4.0,12.0,59,0.00,,,0.00,meteohub,2013-04-17 23:13:00,
2013-04-17 19:18:00,42.3,28.9,29.46,NE,45,6.0,12.0,59,0.00,,,0.00,meteohub,2013-04-17 23:18:00,
2013-04-17 19:23:00,42.3,29.3,29.46,East,90,10.0,12.0,60,0.00,,,0.00,meteohub,2013-04-17 23:23:00,
2013-04-17 19:28:00,42.1,29.7,29.46,East,90,8.0,8.0,61,0.00,,,0.00,meteohub,2013-04-17 23:28:00,
2013-04-17 19:33:00,41.9,29.5,29.45,East,90,4.0,10.0,61,0.00,,,0.00,meteohub,2013-04-17 23:33:00,
2013-04-17 19:38:00,41.5,29.5,29.45,East,90,3.0,10.0,62,0.00,,,0.00,meteohub,2013-04-17 23:38:00,
2013-04-17 19:43:00,41.5,29.8,29.45,ENE,68,4.0,9.0,63,0.00,,,0.00,meteohub,2013-04-17 23:43:00,
2013-04-17 19:49:00,41.2,29.5,29.45,ESE,113,13.0,13.0,63,0.00,,,0.00,meteohub,2013-04-17 23:49:00,
2013-04-17 19:54:00,41.0,29.8,29.45,NE,45,8.0,13.0,64,0.00,,,0.00,meteohub,2013-04-17 23:54:00,
2013-04-17 19:59:00,40.8,29.7,29.45,NE,45,6.0,13.0,64,0.00,,,0.00,meteohub,2013-04-17 23:59:00,
2013-04-17 20:04:00,40.5,29.3,29.45,NE,45,6.0,13.0,64,0.00,,,0.00,meteohub,2013-04-18 00:04:00,
2013-04-17 20:09:00,40.5,29.7,29.45,ESE,113,3.0,14.0,65,0.00,,,0.00,meteohub,2013-04-18 00:09:00,
2013-04-17 20:14:00,40.3,29.5,29.45,East,90,6.0,14.0,65,0.00,,,0.00,meteohub,2013-04-18 00:14:00,
2013-04-17 20:19:00,40.1,29.7,29.45,SE,135,4.0,11.0,66,0.00,,,0.00,meteohub,2013-04-18 00:19:00,
2013-04-17 20:24:00,39.9,29.5,29.45,ESE,113,3.0,11.0,66,0.00,,,0.00,meteohub,2013-04-18 00:24:00,
2013-04-17 20:29:00,39.7,29.7,29.45,East,90,7.0,10.0,67,0.00,,,0.00,meteohub,2013-04-18 00:29:00,
2013-04-17 20:34:00,39.6,29.5,29.43,SW,225,2.0,8.0,67,0.00,,,0.00,meteohub,2013-04-18 00:34:00,
2013-04-17 20:39:00,39.4,29.3,29.43,North,0,4.0,8.0,67,0.00,,,0.00,meteohub,2013-04-18 00:39:00,
2013-04-17 20:44:00,39.4,29.3,29.43,ESE,113,5.0,10.0,67,0.00,,,0.00,meteohub,2013-04-18 00:44:00,
2013-04-17 20:49:00,39.0,29.3,29.43,East,90,8.0,11.0,68,0.00,,,0.00,meteohub,2013-04-18 00:49:00,
2013-04-17 20:54:00,38.8,29.5,29.44,ESE,113,8.0,11.0,69,0.00,,,0.00,meteohub,2013-04-18 00:54:00,
2013-04-17 20:59:00,38.7,29.3,29.44,ENE,68,6.0,11.0,69,0.00,,,0.00,meteohub,2013-04-18 00:59:00,
2013-04-17 21:04:00,38.7,29.7,29.44,East,90,4.0,12.0,70,0.00,,,0.00,meteohub,2013-04-18 01:04:00,
2013-04-17 21:09:00,38.5,29.8,29.44,SSE,158,6.0,12.0,71,0.00,,,0.00,meteohub,2013-04-18 01:09:00,
2013-04-17 21:14:00,38.5,29.8,29.43,East,90,7.0,10.0,71,0.00,,,0.00,meteohub,2013-04-18 01:14:00,
2013-04-17 21:19:00,38.3,30.0,29.43,NE,45,6.0,13.0,72,0.00,,,0.00,meteohub,2013-04-18 01:19:00,
2013-04-17 21:24:00,38.3,30.0,29.43,ESE,113,6.0,13.0,72,0.00,,,0.00,meteohub,2013-04-18 01:24:00,
2013-04-17 21:29:00,38.1,29.8,29.43,ESE,113,9.0,12.0,72,0.00,,,0.00,meteohub,2013-04-18 01:29:00,
2013-04-17 21:34:00,38.1,30.2,29.41,ENE,68,8.0,13.0,73,0.00,,,0.00,meteohub,2013-04-18 01:34:00,
2013-04-17 21:39:00,37.9,30.0,29.41,East,90,8.0,13.0,73,0.00,,,0.00,meteohub,2013-04-18 01:39:00,
2013-04-17 21:44:00,37.9,30.4,29.41,ENE,68,7.0,13.0,74,0.00,,,0.00,meteohub,2013-04-18 01:44:00,
2013-04-17 21:49:00,37.8,30.2,29.41,ENE,68,7.0,13.0,74,0.00,,,0.00,meteohub,2013-04-18 01:49:00,
2013-04-17 21:54:00,37.8,30.6,29.39,ESE,113,9.0,11.0,75,0.00,,,0.00,meteohub,2013-04-18 01:54:00,
2013-04-17 21:59:00,37.6,30.4,29.39,NE,45,9.0,9.0,75,0.00,,,0.00,meteohub,2013-04-18 01:59:00,
2013-04-17 22:04:00,37.4,30.9,29.39,East,90,7.0,20.0,77,0.00,,,0.00,meteohub,2013-04-18 02:04:00,
2013-04-17 22:09:00,37.2,30.7,29.39,NNE,23,10.0,20.0,77,0.00,,,0.00,meteohub,2013-04-18 02:09:00,
2013-04-17 22:14:00,37.2,30.7,29.39,ENE,68,7.0,12.0,77,0.00,,,0.00,meteohub,2013-04-18 02:14:00,
2013-04-17 22:19:00,37.0,30.7,29.39,ESE,113,7.0,12.0,78,0.00,,,0.00,meteohub,2013-04-18 02:19:00,
2013-04-17 22:24:00,36.9,30.6,29.39,ESE,113,4.0,11.0,78,0.00,,,0.00,meteohub,2013-04-18 02:24:00,
2013-04-17 22:29:00,36.9,30.6,29.39,NE,45,7.0,11.0,78,0.00,,,0.00,meteohub,2013-04-18 02:29:00,
2013-04-17 22:34:00,36.7,30.7,29.39,ENE,68,6.0,9.0,79,0.00,,,0.00,meteohub,2013-04-18 02:34:00,
2013-04-17 22:39:00,36.5,30.6,29.39,ESE,113,2.0,9.0,79,0.00,,,0.00,meteohub,2013-04-18 02:39:00,
2013-04-17 22:44:00,36.5,30.6,29.39,ESE,113,4.0,7.0,79,0.00,,,0.00,meteohub,2013-04-18 02:44:00,
2013-04-17 22:49:00,36.5,30.9,29.39,NE,45,5.0,9.0,80,0.00,,,0.00,meteohub,2013-04-18 02:49:00,
2013-04-17 22:54:00,36.5,30.9,29.39,NE,45,6.0,9.0,80,0.00,,,0.00,meteohub,2013-04-18 02:54:00,
2013-04-17 22:59:00,36.5,30.9,29.39,ESE,113,2.0,9.0,80,0.00,,,0.00,meteohub,2013-04-18 02:59:00,
2013-04-17 23:04:00,36.5,30.9,29.39,ESE,113,1.0,7.0,80,0.00,,,0.00,meteohub,2013-04-18 03:04:00,
2013-04-17 23:09:00,36.7,31.1,29.39,East,90,4.0,7.0,80,0.00,,,0.00,meteohub,2013-04-18 03:09:00,
2013-04-17 23:14:00,36.7,31.1,29.39,NE,45,3.0,8.0,80,0.00,,,0.00,meteohub,2013-04-18 03:14:00,
2013-04-17 23:19:00,36.7,31.1,29.39,East,90,3.0,8.0,80,0.00,,,0.00,meteohub,2013-04-18 03:19:00,
2013-04-17 23:24:00,36.7,31.1,29.39,NE,45,5.0,8.0,80,0.00,,,0.00,meteohub,2013-04-18 03:24:00,
2013-04-17 23:29:00,36.7,31.1,29.39,ENE,68,6.0,8.0,80,0.00,,,0.00,meteohub,2013-04-18 03:29:00,
2013-04-17 23:34:00,36.7,31.1,29.36,East,90,7.0,8.0,80,0.00,,,0.00,meteohub,2013-04-18 03:34:00,
2013-04-17 23:39:00,36.5,30.9,29.36,ESE,113,3.0,8.0,80,0.00,,,0.00,meteohub,2013-04-18 03:39:00,
2013-04-17 23:44:00,36.5,30.9,29.36,NNE,23,2.0,7.0,80,0.00,,,0.00,meteohub,2013-04-18 03:44:00,
2013-04-17 23:49:00,36.5,30.9,29.36,NE,45,4.0,7.0,80,0.00,,,0.00,meteohub,2013-04-18 03:49:00,
2013-04-17 23:54:00,36.5,30.9,29.37,ESE,113,4.0,7.0,80,0.00,,,0.00,meteohub,2013-04-18 03:54:00,
2013-04-17 23:59:00,36.5,30.9,29.37,East,90,3.0,7.0,80,0.00,,,0.00,meteohub,2013-04-18 03:59:00,